CheckWX is a tool to help pilots better visualize weather data.  It is not intended as a substitute for an official pre-flight weather briefing.

11:14:22 UTC

CYVP TAF
Kuujjuaq Airport
Kuujjuaq, Canada
TAF AMD CYVP 150605Z 1506/1518 12006KT P6SM OVC008 TEMPO 1506/1512 OVC010 FM151200 10007KT P6SM OVC012 TEMPO 1512/1515 SCT012 OVC025 FM151500 09010KT P6SM BKN025 TEMPO 1515/1518 OVC020 RMK NXT FCST BY 151200Z

Oct-15@
06:00 UTC

Oct-15 @ 06:00 UTC

Oct-15@
12:00 UTC

Oct-15 @ 12:00 UTC

TAF AMD CYVP 150605Z 1506/1518 12006KT P6SM OVC008
Wind
  • 120° at 6 KTS
Cloud Levels
  • Overcast at 800' AGL

Oct-15@
06:00 UTC

Oct-15 @ 06:00 UTC

Oct-15@
12:00 UTC

Oct-15 @ 12:00 UTC

TEMPO 1506/1512 OVC010

Temporary

Temporary Changes expected for less than half the time period

Cloud Levels
  • Overcast at 1,000' AGL

Oct-15@
12:00 UTC

Oct-15 @ 12:00 UTC

Oct-15@
15:00 UTC

Oct-15 @ 15:00 UTC

FM151200 10007KT P6SM OVC012

From

From Standard forecast or significant change

Wind
  • 100° at 7 KTS
Cloud Levels
  • Overcast at 1,200' AGL

Oct-15@
12:00 UTC

Oct-15 @ 12:00 UTC

Oct-15@
15:00 UTC

Oct-15 @ 15:00 UTC

TEMPO 1512/1515 SCT012 OVC025

Temporary

Temporary Changes expected for less than half the time period

Cloud Levels
  • Scattered at 1,200' AGL
  • Overcast at 2,500' AGL

Oct-15@
15:00 UTC

Oct-15 @ 15:00 UTC

Oct-15@
18:00 UTC

Oct-15 @ 18:00 UTC

TEMPO 1515/1518 OVC020 RMK NXT FCST BY 151200Z

Temporary

Temporary Changes expected for less than half the time period

Cloud Levels
  • Overcast at 2,000' AGL

Oct-15@
15:00 UTC

Oct-15 @ 15:00 UTC

Oct-15@
18:00 UTC

Oct-15 @ 18:00 UTC

FM151500 09010KT P6SM BKN025

From

From Standard forecast or significant change

Wind
  • 090° at 10 KTS
Cloud Levels
  • Broken at 2,500' AGL